Nearby METAR Reports - 80 Mile Radius
Meteorological Terminal Air Report (METAR)


KBWI - Balto/Wash Intl Airport, Maryland
Distance from station: S 5mi, 8km
Updated: Sat, 23-Jun-2018 10:54pm EDT
Light rain, Mist, Mostly cloudy
Light rain, Mist, Mostly cloudy
 Wind from S
Wind: S 3 mph , 6 km/h
Temperature: 72°F , 22°C
Dew Point: 70°F , 21°C
Humidity: 94%
Barometer: 29.82 inHg , 1009.8 hPa
Summary: Light rain, Mist
Clouds: Mostly Cloudy
Visibility: 5 miles , 8 km
Cloud details: Partly Cloudy 5000 ft
Mostly Cloudy 6500 ft
Mostly Cloudy 11000 ft
2018/06/24 02:54 KBWI 240254Z 19003KT 5SM -RA BR SCT050 BKN065 BKN110 22/21 A2982 RMK AO2 RAB39 SLP097 P0004 60004 T02220211 53012
KDMH - Baltimore/Dwntwn, Maryland
Distance from station: NE 5mi, 9km
Updated: Sat, 23-Jun-2018 10:54pm EDT

 
Temperature: 75°F , 24°C
Dew Point: 72°F , 22°C
Humidity: 89%
Barometer: 29.83 inHg , 1010.2 hPa
2018/06/24 02:54 KDMH 240254Z AUTO 24/22 A2983 RMK AO1 SLP102 T02440217 53014 $
KFME - Fort Meade/Tipton AAF, Maryland
Distance from station: SSW 11mi, 18km
Updated: Sat, 23-Jun-2018 10:57pm EDT
Partly Cloudy
Partly Cloudy
 Wind from calm
Wind: Calm
Temperature: 70°F , 21°C
Dew Point: 68°F , 20°C
Humidity: 94%
Barometer: 29.85 inHg , 1010.8 hPa
Clouds: Partly Cloudy
Visibility: 10 miles , 16 km
Cloud details: Partly Cloudy 4200 ft
Partly Cloudy 5500 ft
Partly Cloudy 7500 ft
2018/06/24 02:57 KFME 240257Z AUTO 00000KT 10SM SCT042 SCT055 SCT075 21/20 A2985 RMK AO1
 
KMTN - Balto/Martin State Airport, Maryland
Distance from station: ENE 16mi, 26km
Updated: Sat, 23-Jun-2018 10:57pm EDT
Overcast
Overcast
 Wind from calm
Wind: Calm
Temperature: 73°F , 23°C
Dew Point: 73°F , 23°C
Humidity: 100%
Barometer: 29.84 inHg , 1010.5 hPa
Clouds: Overcast
Visibility: 7 miles , 11 km
Cloud details: Partly Cloudy 1900 ft
Mostly Cloudy 6500 ft
Overcast 8000 ft
2018/06/24 02:57 KMTN 240257Z AUTO 00000KT 7SM SCT019 BKN065 OVC080 23/23 A2984 RMK AO2
KCGS - College Park Airport, Maryland
Distance from station: SSW 21mi, 34km
Updated: Sat, 23-Jun-2018 10:57pm EDT
Partly Cloudy
Partly Cloudy
 Wind from calm
Wind: Calm
Temperature: 70°F , 21°C
Dew Point: 70°F , 21°C
Humidity: 100%
Barometer: 29.83 inHg , 1010.2 hPa
Clouds: Partly Cloudy
Visibility: 10 miles , 16 km
Cloud details: Partly Cloudy 4900 ft
Partly Cloudy 8000 ft
2018/06/24 02:57 KCGS 240257Z AUTO 00000KT 10SM SCT049 SCT080 21/21 A2983 RMK AO1 T02110205
KNAK - Annapolis/Naval Academy, Maryland
Distance from station: SE 21mi, 34km
Updated: Sat, 23-Jun-2018 10:54pm EDT
Few Clouds
Few Clouds
 Wind from calm
Wind: Calm
Temperature: 75°F , 24°C
Dew Point: 72°F , 22°C
Humidity: 89%
Barometer: 29.82 inHg , 1009.8 hPa
Clouds: Few Clouds
Visibility: 7 miles , 11 km
Cloud details: Few Clouds 7000 ft
2018/06/24 02:54 KNAK 240254Z AUTO 00000KT 7SM FEW070 24/22 A2982 RMK AO2 SLP101 T02440222 53011
 
KGAI - Gaithersburg/Montgomery Co Airpark, Maryland
Distance from station: W 26mi, 41km
Updated: Sat, 23-Jun-2018 10:56pm EDT
Few Clouds
Few Clouds
 Wind from calm
Wind: Calm
Temperature: 72°F , 22°C
Dew Point: 70°F , 21°C
Humidity: 94%
Barometer: 29.85 inHg , 1010.8 hPa
Clouds: Few Clouds
Visibility: 10 miles , 16 km
Cloud details: Few Clouds 4200 ft
2018/06/24 02:56 KGAI 240256Z AUTO 00000KT 10SM FEW042 22/21 A2985 RMK AO2 SLP132 T02170206 53012
KW29 - Stevensville/Bay Bridge Airport, Maryland
Distance from station: SE 26mi, 42km
Updated: Sat, 23-Jun-2018 10:55pm EDT
Mostly Cloudy
Mostly Cloudy
 Wind from calm
Wind: Calm
Temperature: 75°F , 24°C
Dew Point: 72°F , 22°C
Humidity: 89%
Barometer: 29.82 inHg , 1009.8 hPa
Clouds: Mostly Cloudy
Visibility: 7 miles , 11 km
Cloud details: Partly Cloudy 6500 ft
Mostly Cloudy 7500 ft
2018/06/24 02:55 KW29 240255Z AUTO 00000KT 7SM SCT065 BKN075 24/22 A2982 RMK AO2
KDMW - Carroll Co Regional Airport, Maryland
Distance from station: NNW 30mi, 48km
Updated: Sat, 23-Jun-2018 10:55pm EDT
Mostly Cloudy
Mostly Cloudy
 Wind from calm
Wind: Calm
Temperature: 70°F , 21°C
Dew Point: 70°F , 21°C
Humidity: 100%
Barometer: 29.84 inHg , 1010.5 hPa
Clouds: Mostly Cloudy
Visibility: 10 miles , 16 km
Cloud details: Partly Cloudy 9000 ft
Mostly Cloudy 11000 ft
2018/06/24 02:55 KDMW 240255Z AUTO 00000KT 10SM SCT090 BKN110 21/21 A2984 RMK AO2
 
KADW - Andrews AFB, Maryland
Distance from station: SSW 30mi, 49km
Updated: Sat, 23-Jun-2018 10:56pm EDT
Clear
Clear
 Wind from S
Wind: S 7 mph , 11 km/h
Temperature: 70°F , 21°C
Dew Point: 68°F , 20°C
Humidity: 94%
Barometer: 29.82 inHg , 1009.8 hPa
Clouds: Clear
Visibility: 10 miles , 16 km
2018/06/24 02:56 KADW 240256Z AUTO 17006KT 10SM CLR 21/20 A2982 RMK AO2 SLP103 T02110204 51008 $
KAPG - Aberdeen/Phillip AAF, Maryland
Distance from station: ENE 32mi, 52km
Updated: Fri, 22-Jun-2018 6:53pm EDT
NOT Current
Light rain, Mist, Overcast
Light rain, Mist, Overcast
 Wind from SE
Wind: SE 12 mph , 19 km/h
Temperature: 66°F , 19°C
Dew Point: 66°F , 19°C
Humidity: 100%
Barometer: 29.94 inHg , 1013.9 hPa
Summary: Light rain, Mist
Clouds: Overcast
Visibility: 4 miles , 6 km
Cloud details: Mostly Cloudy 1000 ft
Overcast 2000 ft
2018/06/22 22:53 KAPG 222253Z 14010KT 4SM -RA BR BKN010 OVC020 19/19 A2994 RMK SLPNO $
KDCA - Washington/Natl Airport, Washington D.C.
Distance from station: SW 32mi, 52km
Updated: Sat, 23-Jun-2018 10:52pm EDT
Few Clouds
Few Clouds
 Wind from NW
Wind: NW 6 mph , 9 km/h
Temperature: 73°F , 23°C
Dew Point: 72°F , 22°C
Humidity: 94%
Barometer: 29.83 inHg , 1010.2 hPa
Clouds: Few Clouds
Visibility: 10 miles , 16 km
Cloud details: Few Clouds 4000 ft
Few Clouds 7000 ft
2018/06/24 02:52 KDCA 240252Z 32005KT 10SM FEW040 FEW070 23/22 A2983 RMK AO2 SLP102 60001 T02330217 53011
 
KFDK - Frederick Municipal Airport, Maryland
Distance from station: WNW 38mi, 61km
Updated: Sat, 23-Jun-2018 10:45pm EDT
Clear
Clear
 Wind from calm
Wind: Calm
Temperature: 72°F , 22°C
Dew Point: 72°F , 22°C
Humidity: 100%
Barometer: 29.85 inHg , 1010.8 hPa
Clouds: Clear
Visibility: 10 miles , 16 km
2018/06/24 02:45 KFDK 240245Z AUTO 00000KT 10SM CLR 22/22 A2985 RMK AO2 LTG DSNT E
KDAA - Fort Belvoir/Davison AAF, Virginia
Distance from station: SW 44mi, 71km
Updated: Sat, 23-Jun-2018 10:56pm EDT
Few Clouds
Few Clouds
 Wind from calm
Wind: Calm
Temperature: 70°F , 21°C
Dew Point: 70°F , 21°C
Humidity: 100%
Barometer: 29.83 inHg , 1010.2 hPa
Clouds: Few Clouds
Visibility: 10 miles , 16 km
Cloud details: Few Clouds 6000 ft
2018/06/24 02:56 KDAA 240256Z AUTO 00000KT 10SM FEW060 21/21 A2983 RMK AO2 SLP104 P0080 62080 T02120212 52010 $
KESN - Easton/Newnam Field Airport, Maryland
Distance from station: SE 45mi, 73km
Updated: Sat, 23-Jun-2018 10:49pm EDT
Partly Cloudy
Partly Cloudy
 Wind from calm
Wind: Calm
Temperature: 75°F , 24°C
Dew Point: 73°F , 23°C
Humidity: 94%
Barometer: 29.86 inHg , 1011.2 hPa
Clouds: Partly Cloudy
Visibility: 10 miles , 16 km
Cloud details: Partly Cloudy 9000 ft
2018/06/24 02:49 KESN 240249Z AUTO 00000KT 10SM SCT090 24/23 A2986 RMK AO2 T02420226
 
KIAD - Wash DC/Dulles Intl, Virginia
Distance from station: WSW 45mi, 73km
Updated: Sat, 23-Jun-2018 10:52pm EDT
Partly Cloudy
Partly Cloudy
 Wind from calm
Wind: Calm
Temperature: 70°F , 21°C
Dew Point: 70°F , 21°C
Humidity: 100%
Barometer: 29.83 inHg , 1010.2 hPa
Clouds: Partly Cloudy
Visibility: 10 miles , 16 km
Cloud details: Few Clouds 4000 ft
Partly Cloudy 7500 ft
2018/06/24 02:52 KIAD 240252Z 00000KT 10SM FEW040 SCT075 21/21 A2983 RMK AO2 SLP100 T02060206 53012
KJYO - Leesburg/Godfrey Field, Virginia
Distance from station: WSW 48mi, 77km
Updated: Sat, 23-Jun-2018 10:55pm EDT
Mostly Cloudy
Mostly Cloudy
 Wind from calm
Wind: Calm
Temperature: 68°F , 20°C
Dew Point: 68°F , 20°C
Humidity: 100%
Barometer: 29.85 inHg , 1010.8 hPa
Clouds: Mostly Cloudy
Visibility: 10 miles , 16 km
Cloud details: Mostly Cloudy 6500 ft
2018/06/24 02:55 KJYO 240255Z AUTO 00000KT 10SM BKN065 20/20 A2985 RMK AO2
KTHV - York Airport, Pennsylvania
Distance from station: NNW 48mi, 77km
Updated: Sat, 23-Jun-2018 10:53pm EDT
Few Clouds
Few Clouds
 Wind from calm
Wind: Calm
Temperature: 72°F , 22°C
Dew Point: 70°F , 21°C
Humidity: 94%
Barometer: 29.82 inHg , 1009.8 hPa
Clouds: Few Clouds
Visibility: 7 miles , 11 km
Cloud details: Few Clouds 5000 ft
2018/06/24 02:53 KTHV 240253Z AUTO 00000KT 7SM FEW050 22/21 A2982 RMK AO2 RAB01E29 SLP097 P0003 60003 T02170211 51010
 
KRSP - Naval Support Fac Thurmont, Maryland, USA
Distance from station: NW 50mi, 81km
Updated: Sat, 23-Jun-2018 10:54pm EDT
Few Clouds
Few Clouds
 Wind from varies
Wind: varies 7 mph , 11 km/h
Temperature: 66°F , 19°C
Dew Point: 64°F , 18°C
Humidity: 94%
Barometer: 29.85 inHg , 1010.8 hPa
Clouds: Few Clouds
Visibility: 10 miles , 16 km
Cloud details: Few Clouds 100 ft
2018/06/24 02:54 KRSP 240254Z AUTO VRB06KT 10SM FEW001 19/18 A2985 RMK AO2 SLP105 60015 T01890183 53007 $
KRYT - Fountain Dale Airport, Pennsylvania
Distance from station: NW 52mi, 84km
Updated: Mon, 13-Nov-2017 7:53am EST
NOT Current
Mist, Overcast
Mist, Overcast
 Wind from calm
Wind: Calm
Temperature: 37°F , 3°C
Dew Point: 34°F , 1°C
Humidity: 87%
Barometer: 30.31 inHg , 1026.4 hPa
Summary: Mist
Clouds: Overcast
Visibility: 5 miles , 8 km
Cloud details: Overcast 700 ft
2017/11/13 12:53 KRYT 131253Z AUTO 00000KT 5SM BR OVC007 03/01 A3031 RMK AO2 SLP275 T00280011 TSNO $
KHEF - Manassas Municipal Airport, Virginia
Distance from station: SW 57mi, 91km
Updated: Sat, 23-Jun-2018 10:56pm EDT
Partly Cloudy
Partly Cloudy
 Wind from calm
Wind: Calm
Temperature: 70°F , 21°C
Dew Point: 70°F , 21°C
Humidity: 100%
Barometer: 29.84 inHg , 1010.5 hPa
Clouds: Partly Cloudy
Visibility: 10 miles , 16 km
Cloud details: Partly Cloudy 6500 ft
2018/06/24 02:56 KHEF 240256Z AUTO 00000KT 10SM SCT065 21/21 A2984 RMK AO2 SLP112 6//// T02060206 51010 PNO $
 
KNYG - Quantico Marine Corps Air Fac, Virginia
Distance from station: SSW 60mi, 96km
Updated: Sat, 23-Jun-2018 10:56pm EDT
Clear
Clear
 Wind from NW
Wind: NW 3 mph , 6 km/h
Temperature: 72°F , 22°C
Dew Point: 72°F , 22°C
Humidity: 100%
Barometer: 29.83 inHg , 1010.2 hPa
Clouds: Clear
Visibility: 10 miles , 16 km
2018/06/24 02:56 KNYG 240256Z AUTO 32003KT 10SM CLR 22/22 A2983 RMK AO2 SLP103 T02220222 53009
KCGE - Cambridge-Dorchester Reg Airport, Maryland
Distance from station: SE 60mi, 97km
Updated: Sat, 23-Jun-2018 10:55pm EDT
Clear
Clear
 Wind from calm
Wind: Calm
Temperature: 75°F , 24°C
Dew Point: 73°F , 23°C
Humidity: 94%
Barometer: 29.83 inHg , 1010.2 hPa
Clouds: Clear
Visibility: 10 miles , 16 km
2018/06/24 02:55 KCGE 240255Z AUTO 00000KT 10SM CLR 24/23 A2983 RMK A01
K2W6 - St Marys Co Reg Airport, Maryland
Distance from station: SSE 64mi, 103km
Updated: Sat, 23-Jun-2018 10:57pm EDT
Clear
Clear
 Wind from calm
Wind: Calm
Temperature: 70°F , 21°C
Dew Point: 68°F , 20°C
Humidity: 94%
Barometer: 29.85 inHg , 1010.8 hPa
Clouds: Clear
Visibility: 10 miles , 16 km
2018/06/24 02:57 K2W6 240257Z AUTO 00000KT 10SM CLR 21/20 A2985 RMK AO1
 
KHGR - Hagerstown Reg Airport, Maryland
Distance from station: WNW 64mi, 103km
Updated: Sat, 23-Jun-2018 10:53pm EDT
Clear
Clear
 Wind from S
Wind: S 5 mph , 7 km/h
Temperature: 72°F , 22°C
Dew Point: 68°F , 20°C
Humidity: 88%
Barometer: 29.82 inHg , 1009.8 hPa
Clouds: Clear
Visibility: 10 miles , 16 km
2018/06/24 02:53 KHGR 240253Z AUTO 18004KT 10SM CLR 22/20 A2982 RMK AO2 SLP104 60000 T02220200 51013
KLNS - Lancaster Airport, Pennsylvania
Distance from station: NNE 64mi, 104km
Updated: Sat, 23-Jun-2018 10:53pm EDT
Mist, Partly cloudy
Mist, Partly cloudy
 Wind from E
Wind: E 3 mph , 6 km/h
Temperature: 68°F , 20°C
Dew Point: 66°F , 19°C
Humidity: 94%
Barometer: 29.82 inHg , 1009.8 hPa
Summary: Mist
Clouds: Partly Cloudy
Visibility: 2 miles , 3 km
Cloud details: Few Clouds 2100 ft
Partly Cloudy 7500 ft
2018/06/24 02:53 KLNS 240253Z 09003KT 2SM BR FEW021 SCT075 20/19 A2982 RMK AO2 SLP096 T02000194 53007
KILG - New Castle Airport, Wilmington, Delaware
Distance from station: ENE 66mi, 106km
Updated: Sat, 23-Jun-2018 10:51pm EDT
Overcast
Overcast
 Wind from E
Wind: E 5 mph , 7 km/h
Temperature: 72°F , 22°C
Dew Point: 70°F , 21°C
Humidity: 94%
Barometer: 29.83 inHg , 1010.2 hPa
Clouds: Overcast
Visibility: 9 miles , 14 km
Cloud details: Overcast 1200 ft
2018/06/24 02:51 KILG 240251Z 09004KT 9SM OVC012 22/21 A2983 RMK AO2 SLP101 T02220206 51004
 
KDOV - Dover Air Force Base, Delaware
Distance from station: E 66mi, 107km
Updated: Sat, 23-Jun-2018 10:56pm EDT
Mist, Overcast
Mist, Overcast
 Wind from SE
Wind: SE 5 mph , 7 km/h
Temperature: 72°F , 22°C
Dew Point: 70°F , 21°C
Humidity: 94%
Barometer: 29.82 inHg , 1009.8 hPa
Summary: Mist
Clouds: Overcast
Visibility: 1 1/2 miles , 2.4 km
Cloud details: Overcast 200 ft
2018/06/24 02:56 KDOV 240256Z 14004KT 1 1/2SM BR OVC002 22/21 A2982 RMK AO2A RAB0156E04 SLP101 P0000 60000 T02170213 52009 $
KMDT - Harrisburg Intl Airport, Middletown, Pennsylvania
Distance from station: N 67mi, 107km
Updated: Sat, 23-Jun-2018 10:56pm EDT
Light rain, Mist, Mostly cloudy
Light rain, Mist, Mostly cloudy
 Wind from calm
Wind: Calm
Temperature: 70°F , 21°C
Dew Point: 66°F , 19°C
Humidity: 88%
Barometer: 29.81 inHg , 1009.5 hPa
Summary: Light rain, Mist
Clouds: Mostly Cloudy
Visibility: 5 miles , 8 km
Cloud details: Mostly Cloudy 1700 ft
Mostly Cloudy 3500 ft
2018/06/24 02:56 KMDT 240256Z 00000KT 5SM -RA BR BKN017 BKN035 21/19 A2981 RMK AO2 RAB41 SLP093 P0000 60000 T02060189 53007
KMQS - Chester Co Carlson Airport, Coatesville, Pennsylvania
Distance from station: NE 68mi, 109km
Updated: Sat, 23-Jun-2018 10:55pm EDT
Mist, Overcast
Mist, Overcast
 Wind from calm
Wind: Calm
Temperature: 68°F , 20°C
Dew Point: 66°F , 19°C
Humidity: 94%
Barometer: 29.85 inHg , 1010.8 hPa
Summary: Mist
Clouds: Overcast
Visibility: 2 1/2 miles , 4 km
Cloud details: Overcast 700 ft
2018/06/24 02:55 KMQS 240255Z AUTO 00000KT 2 1/2SM BR OVC007 20/19 A2985 RMK AO2
 
KCXY - Capital City Airport, Harrisburg, Pennsylvania
Distance from station: N 68mi, 110km
Updated: Sat, 23-Jun-2018 10:56pm EDT
Haze, Overcast
Haze, Overcast
 Wind from calm
Wind: Calm
Temperature: 70°F , 21°C
Dew Point: 64°F , 18°C
Humidity: 83%
Barometer: 29.82 inHg , 1009.8 hPa
Summary: Haze
Clouds: Overcast
Visibility: 6 miles , 10 km
Cloud details: Partly Cloudy 800 ft
Mostly Cloudy 1300 ft
Overcast 4500 ft
2018/06/24 02:56 KCXY 240256Z AUTO 00000KT 6SM HZ SCT008 BKN013 OVC045 21/18 A2982 RMK AO2 SLP095 T02110183 53007
KNHK - Patuxent River NAS, Maryland
Distance from station: SE 69mi, 111km
Updated: Sat, 23-Jun-2018 10:52pm EDT
Clear
Clear
 Wind from calm
Wind: Calm
Temperature: 75°F , 24°C
Dew Point: 72°F , 22°C
Humidity: 89%
Barometer: 29.83 inHg , 1010.2 hPa
Clouds: Clear
Visibility: 10 miles , 16 km
2018/06/24 02:52 KNHK 240252Z AUTO 00000KT 10SM CLR 24/22 A2983 RMK AO2 SLP100 T02440222 53012
KMRB - Eastern WV Reg Airport/Shepherd Field, Martinsburg, West Virginia
Distance from station: W 70mi, 112km
Updated: Sat, 23-Jun-2018 10:53pm EDT
Clear
Clear
 Wind from SW
Wind: SW 5 mph , 7 km/h
Temperature: 70°F , 21°C
Dew Point: 64°F , 18°C
Humidity: 83%
Barometer: 29.82 inHg , 1009.8 hPa
Clouds: Clear
Visibility: 10 miles , 16 km
2018/06/24 02:53 KMRB 240253Z AUTO 23004KT 10SM CLR 21/18 A2982 RMK AO2 SLP093 T02110178 51013
 
KHWY - Warrenton-Fauquier Airport, Warrenton, Virginia
Distance from station: SW 71mi, 114km
Updated: Sat, 23-Jun-2018 10:55pm EDT
Clear
Clear
 Wind from calm
Wind: Calm
Temperature: 70°F , 21°C
Dew Point: 66°F , 19°C
Humidity: 88%
Barometer: 29.83 inHg , 1010.2 hPa
Clouds: Clear
Visibility: 10 miles , 16 km
2018/06/24 02:55 KHWY 240255Z AUTO 00000KT 10SM CLR 21/19 A2983 RMK AO2 T02110194
KRMN - Stafford Regional Airport, Virginia
Distance from station: SW 71mi, 114km
Updated: Sat, 23-Jun-2018 10:55pm EDT
Clear
Clear
 Wind from calm
Wind: Calm
Temperature: 70°F , 21°C
Dew Point: 70°F , 21°C
Humidity: 100%
Barometer: 29.87 inHg , 1011.5 hPa
Clouds: Clear
Visibility: 10 miles , 16 km
2018/06/24 02:55 KRMN 240255Z AUTO 00000KT 10SM CLR 21/21 A2987 RMK AO2 T02120212
KNUI - Webster Naval, St Inigoes, Maryland
Distance from station: S 76mi, 123km
Updated: Sat, 23-Jun-2018 10:53pm EDT
Few Clouds
Few Clouds
 Wind from calm
Wind: Calm
Temperature: 75°F , 24°C
Dew Point: 75°F , 24°C
Humidity: 100%
Barometer: 29.82 inHg , 1009.8 hPa
Clouds: Few Clouds
Cloud details: Few Clouds 10000 ft
2018/06/24 02:53 KNUI 240253Z AUTO 00000KT FEW100 24/24 A2982 RMK AO2 SLP098 6//// T02390239 53014 PNO $
 
KEZF - Fredericksburg/Shan, Virginia
Distance from station: SSW 78mi, 126km
Updated: Sat, 23-Jun-2018 10:55pm EDT
Clear
Clear
 Wind from calm
Wind: Calm
Temperature: 73°F , 23°C
Dew Point: 73°F , 23°C
Humidity: 100%
Barometer: 29.82 inHg , 1009.8 hPa
Clouds: Clear
Visibility: 10 miles , 16 km
2018/06/24 02:55 KEZF 240255Z AUTO 00000KT 10SM CLR 23/23 A2982 RMK AO2 T02330233
KOKV - Winchester Regional Airport, Virginia
Distance from station: W 78mi, 126km
Updated: Sat, 23-Jun-2018 10:55pm EDT
Partly Cloudy
Partly Cloudy
 Wind from calm
Wind: Calm
Temperature: 66°F , 19°C
Dew Point: 66°F , 19°C
Humidity: 100%
Barometer: 29.86 inHg , 1011.2 hPa
Clouds: Partly Cloudy
Visibility: 10 miles , 16 km
Cloud details: Partly Cloudy 6000 ft
Partly Cloudy 10000 ft
2018/06/24 02:55 KOKV 240255Z AUTO 00000KT 10SM SCT060 SCT100 19/19 A2986 RMK AO2
KCJR - Culpeper Regional Airport, Virginia
Distance from station: SW 79mi, 128km
Updated: Sat, 23-Jun-2018 10:55pm EDT
Clear
Clear
 Wind from calm
Wind: Calm
Temperature: 70°F , 21°C
Dew Point: 68°F , 20°C
Humidity: 94%
Barometer: 29.85 inHg , 1010.8 hPa
Clouds: Clear
Visibility: 10 miles , 16 km
2018/06/24 02:55 KCJR 240255Z AUTO 00000KT 10SM CLR 21/20 A2985 RMK AO2 T02080200